Saturday, November 17, 2018, 1:43 AM EST
Back to Local

KFVE, Northern Aroostook Regional

Location: Saint Agatha, ME, United States Lat: 47.283
Local Time: 1:43 AM EST ( 6:43 GMT) Lon: -68.3
Time Zone: US/Eastern Elev: 987 ft

Show me the last for .
Show Decoded

2018-11-17 01:28 METAR KFVE 170628Z AUTO 30006KT 3SM -SN OVC033 M06/M09 A2956 RMK AO2 P0000
                 T10611089 =
2018-11-17 01:19 METAR KFVE 170619Z AUTO 30005KT 2 1/2SM -SN OVC032 M06/M09 A2956 RMK AO2 P0000
                 T10611089 =
2018-11-17 00:53 METAR KFVE 170553Z AUTO 32006KT 3SM -SN OVC031 M06/M09 A2955 RMK AO2 SLP019
                 P0000 60003 I6002 T10611089 11056 21061 53007 =
2018-11-17 00:45 METAR KFVE 170545Z AUTO 32007KT 4SM -SN OVC028 M06/M09 A2955 RMK AO2 P0000
                 T10611089 =
2018-11-17 00:37 METAR KFVE 170537Z AUTO 31006KT 2 1/2SM -SN OVC028 M06/M09 A2954 RMK AO2 P0000
                 T10611089 =
2018-11-17 00:29 METAR KFVE 170529Z AUTO 31006KT 1 3/4SM -SN OVC026 M06/M09 A2954 RMK AO2 P0000
                 T10611089 =
2018-11-17 00:17 METAR KFVE 170517Z AUTO 31006KT 1 1/2SM -SN OVC024 M06/M09 A2954 RMK AO2 P0000
                 T10611089 =
2018-11-16 23:53 METAR KFVE 170453Z AUTO 33007KT 2SM -SN OVC022 M06/M09 A2953 RMK AO2 SLP015
                 P0002 T10611089 410561106 =
2018-11-16 23:49 METAR KFVE 170449Z AUTO 33007KT 2SM -SN OVC020 M06/M09 A2953 RMK AO2 P0002 =
2018-11-16 23:38 METAR KFVE 170438Z AUTO 34006KT 1 3/4SM -SN OVC016 M06/M09 A2953 RMK AO2 P0001
                 T10611089 =
2018-11-16 23:24 METAR KFVE 170424Z AUTO 33006KT 1 1/2SM -SN OVC017 M06/M09 A2953 RMK AO2 P0001
                 T10611089 =
2018-11-16 23:12 METAR KFVE 170412Z AUTO 34007KT 1 3/4SM -SN OVC019 M06/M09 A2952 RMK AO2 P0001
                 T10611089 =
2018-11-16 23:00 METAR KFVE 170400Z AUTO 34008KT 2 1/2SM -SN OVC029 M06/M09 A2952 RMK AO2 P0000
                 T10561089 =
2018-11-16 22:53 METAR KFVE 170353Z AUTO 34007KT 4SM -SN OVC035 M06/M09 A2952 RMK AO2 SLP012
                 P0000 T10611089 =
2018-11-16 22:23 METAR KFVE 170323Z AUTO 35006KT 4SM -SN BR BKN031 OVC049 M06/M08 A2953 RMK AO2
                 P0000 T10611083 =
2018-11-16 22:17 METAR KFVE 170317Z AUTO 35007KT 2 1/2SM -SN BR BKN023 OVC049 M06/M08 A2952 RMK
                 AO2 P0000 T10611083 =
2018-11-16 22:10 METAR KFVE 170310Z AUTO 34007KT 1 3/4SM -SN BR OVC016 M06/M08 A2953 RMK AO2
                 P0000 T10611083 =
2018-11-16 22:04 METAR KFVE 170304Z AUTO 33007KT 1 1/2SM -SN BR OVC014 M06/M08 A2953 RMK AO2
                 P0000 T10611083 =
2018-11-16 21:53 METAR KFVE 170253Z AUTO 34007KT 1 1/2SM -SN BR OVC016 M06/M08 A2953 RMK AO2
                 SLP014 P0001 60001 I3002 T10611083 58004 =
2018-11-16 21:20 METAR KFVE 170220Z AUTO 34007KT 1 3/4SM -SN BR OVC016 M06/M08 A2953 RMK AO2
                 P0001 T10611083 =
2018-11-16 21:07 METAR KFVE 170207Z AUTO 34008KT 1 1/4SM -SN BR OVC017 M06/M08 A2953 RMK AO2
                 P0000 T10611083 =
2018-11-16 20:58 METAR KFVE 170158Z AUTO 35008KT 1 1/2SM -SN BR OVC019 M06/M08 A2954 RMK AO2
                 P0000 T10611083 =
2018-11-16 20:53 METAR KFVE 170153Z AUTO 34009KT 2SM -SN BR OVC023 M06/M08 A2953 RMK AO2 SNB32
                 SLP016 P0000 I1000 T10611083 =
2018-11-16 20:48 METAR KFVE 170148Z AUTO 35010KT 2 1/2SM -SN BR OVC027 M06/M08 A2953 RMK AO2
                 SNB32 P0000 I1000 =
2018-11-16 20:02 METAR KFVE 170102Z AUTO 35010KT 7SM FEW007 FEW030 OVC040 M06/M08 A2954 RMK AO2
                 T10611083 =
2018-11-16 19:53 METAR KFVE 170053Z AUTO 35011KT 6SM FEW030 OVC038 M06/M09 A2954 RMK AO2
                 UPB15E29FZRAB29E53SNE15 SLP016 P0000 I1002 T10611089 =
2018-11-16 19:35 METAR KFVE 170035Z AUTO 34013KT 5SM -FZRA SCT029 OVC036 M06/M09 A2955 RMK AO2
                 UPB15E29FZRAB29SNE15 P0000 I1001 T10611089 =
2018-11-16 18:53 METAR KFVE 162353Z AUTO 35009KT 4SM -SN OVC038 M06/M09 A2954 RMK AO2
                 UPB37E39SNB39 SLP019 P0000 60006 T10611089 11061 21067 56020 =
2018-11-16 17:53 METAR KFVE 162253Z AUTO 35013KT 10SM OVC039 M06/M09 A2956 RMK AO2 SNE30 SLP025
                 P0001 T10611094 =
2018-11-16 17:01 METAR KFVE 162201Z AUTO 36008KT 5SM -SN OVC038 M06/M09 A2957 RMK AO2 P0000
                 T10611094 =
2018-11-16 16:53 METAR KFVE 162153Z AUTO 01010KT 2 1/2SM -SN BKN026 OVC042 M06/M09 A2957 RMK AO2
                 SLP028 P0000 T10611094 =
2018-11-16 16:49 METAR KFVE 162149Z AUTO 36011KT 2SM -SN BKN024 OVC044 M06/M09 A2957 RMK AO2
                 P0000 =
2018-11-16 16:42 METAR KFVE 162142Z AUTO 36010KT 1 1/2SM -SN BKN020 OVC044 M06/M09 A2957 RMK AO2
                 P0000 T10611094 =
2018-11-16 16:22 METAR KFVE 162122Z AUTO 35010KT 1 1/4SM -SN OVC017 M07/M09 A2959 RMK AO2 P0000
                 T10671094 =
2018-11-16 16:15 METAR KFVE 162115Z AUTO 36010KT 1 1/2SM -SN OVC019 M07/M09 A2960 RMK AO2 P0000
                 T10671094 =
2018-11-16 15:57 METAR KFVE 162057Z AUTO 35009KT 1 3/4SM -SN OVC023 M07/M09 A2960 RMK AO2 P0000
                 T10671094 =
2018-11-16 15:53 METAR KFVE 162053Z AUTO 36008KT 1 1/4SM -SN OVC023 M07/M09 A2960 RMK AO2 SLP040
                 P0001 60005 T10671094 55012 =
2018-11-16 15:50 METAR KFVE 162050Z AUTO 01009KT 1 1/4SM -SN OVC023 M07/M09 A2960 RMK AO2 P0001 =
2018-11-16 15:40 METAR KFVE 162040Z AUTO 01009KT 3/4SM -SN VV018 M07/M09 A2961 RMK AO2 P0001
                 T10671094 =
2018-11-16 15:17 METAR KFVE 162017Z AUTO 01008KT 1/2SM SN VV014 M07/M09 A2962 RMK AO2 P0001
                 T10671094 =
2018-11-16 14:53 METAR KFVE 161953Z AUTO 02009KT 3/4SM -SN VV017 M07/M10 A2964 RMK AO2 SLP052
                 P0001 T10671100 =
2018-11-16 14:50 METAR KFVE 161950Z AUTO 02009KT 3/4SM -SN VV017 M07/M10 A2964 RMK AO2 P0001 =
2018-11-16 14:16 METAR KFVE 161916Z AUTO 02011KT 1/2SM SN VV010 M07/M10 A2965 RMK AO2 P0001
                 T10671100 =
2018-11-16 13:53 METAR KFVE 161853Z AUTO 03009G17KT 1/4SM +SN VV008 M07/M10 A2967 RMK AO2 SLP063
                 P0003 T10671100 =
2018-11-16 12:53 METAR KFVE 161753Z AUTO 04008KT 1/4SM +SN VV008 M07/M10 A2973 RMK AO2 SLP083
                 P0006 60011 T10671100 11067 21094 56052 =
2018-11-16 12:13 METAR KFVE 161713Z AUTO 05008KT 1/4SM +SN VV008 M07/M10 A2976 RMK AO2 P0003
                 T10721100 =
2018-11-16 11:53 METAR KFVE 161653Z AUTO 07007KT 1/2SM SN VV012 M07/M10 A2978 RMK AO2 SLP100
                 P0002 T10721100 =
2018-11-16 11:01 METAR KFVE 161601Z AUTO 10009KT 1/2SM SN VV016 M08/M11 A2983 RMK AO2 P0000
                 T10781106 =
2018-11-16 10:53 METAR KFVE 161553Z AUTO 08007KT 1SM -SN VV018 M08/M11 A2984 RMK AO2 SLP120 P0001
                 T10781106 =
2018-11-16 10:25 METAR KFVE 161525Z AUTO 09008KT 1SM -SN VV017 M08/M11 A2986 RMK AO2 P0001
                 T10781111 $ =
2018-11-16 09:53 METAR KFVE 161453Z AUTO 08008KT 1/2SM SN VV013 M08/M12 A2989 RMK AO2 SNB02
                 SLP137 P0002 60002 T10831117 58042 $ =
2018-11-16 09:24 METAR KFVE 161424Z AUTO 09005KT 1/2SM SN VV013 M08/M12 A2991 RMK AO2 SNB02 P0000
                 T10831122 $ =
2018-11-16 09:15 METAR KFVE 161415Z AUTO 10007KT 1/2SM SN VV016 M08/M13 A2992 RMK AO2 SNB02 P0000
                 T10831128 $ =
2018-11-16 09:07 METAR KFVE 161407Z AUTO 10007KT 1 1/4SM -SN FEW016 BKN026 OVC050 M08/M13 A2992
                 RMK AO2 SNB02 P0000 T10831133 =
2018-11-16 09:05 METAR KFVE 161405Z AUTO 09006KT 1 3/4SM -SN FEW016 BKN029 OVC050 M08/M14 A2993
                 RMK AO2 SNB02 P0000 T10831139 =
2018-11-16 08:53 METAR KFVE 161353Z AUTO 10006KT 10SM SCT016 BKN048 OVC055 M08/M14 A2994 RMK AO2
                 SLP153 T10831144 =
2018-11-16 07:53 METAR KFVE 161253Z AUTO 10005KT 10SM OVC065 M09/M14 A2999 RMK AO2 SLP173
                 T10891144 =
2018-11-16 06:53 METAR KFVE 161153Z AUTO 10006KT 10SM OVC095 M09/M15 A3002 RMK AO2 SLP181
                 T10941150 11089 21106 56031 $ =
2018-11-16 05:53 METAR KFVE 161053Z AUTO 10008KT 10SM OVC095 M09/M15 A3004 RMK AO2 SLP188
                 T10941150 $ =
2018-11-16 04:53 METAR KFVE 160953Z AUTO 09004KT 10SM CLR M10/M15 A3008 RMK AO2 SLP203 T11001150
                 $ =
2018-11-16 03:53 METAR KFVE 160853Z AUTO 09006KT 10SM CLR M10/M15 A3011 RMK AO2 SLP213 T11001150
                 56038 $ =
2018-11-16 02:53 METAR KFVE 160753Z AUTO 10007KT 10SM CLR M09/M15 A3014 RMK AO2 SLP222 T10941150
                 $ =
2018-11-16 01:53 METAR KFVE 160653Z AUTO 12003KT 10SM CLR M10/M14 A3018 RMK AO2 SLP236 T11001144
                 $ =

Support USWX by starting your Amazon purchase here.